Flight Track Log - Related Links

Times and Time Zones

All times are in EST time to prevent confusion due to time zone crossing. See the KAP802 flight status page for this flight to view local times or setup timezone preferences in your user account.

Time Position Orientation Groundspeed Altitude Reporting Facility
EST Latitude Longitude Course Direction KTS MPH feet Rate Location/Type
Sun 02:18:22 PM 42.3333 -70.9333 149° Southeast 132 152 2,100  Level KA90
Sun 02:19:22 PM 42.3167 -70.9000 124° Southeast 140 161 3,200 750 Climbing KA90
Sun 02:20:22 PM 42.2833 -70.8500 132° Southeast 173 199 3,600 200 Climbing KA90
Sun 02:21:22 PM 42.2500 -70.8000 132° Southeast 175 201 3,600 -54 Level KA90
Sun 02:22:13 PM 42.2289 -70.7817 147° Southeast 173 199 3,500  Descending Boston Center
Sun 02:23:00 PM 42.1548 -70.8259 149° Southeast  Level Estimated
Sun 02:23:16 PM 42.1753 -70.7433 152° Southeast 179 206 3,600  Level Boston Center
Sun 02:24:17 PM 42.1319 -70.7103 151° Southeast 180 207 3,600  Level Boston Center
Sun 02:25:17 PM 42.0897 -70.6789 151° Southeast 178 205 3,600  Level Boston Center
Sun 02:26:18 PM 42.0469 -70.6492 153° Southeast 175 201 3,600  Level Boston Center
Sun 02:27:21 PM 42.0064 -70.6181 150° Southeast 170 196 3,600  Level Boston Center
Sun 02:28:22 PM 41.9650 -70.5875 151° Southeast 170 196 3,600  Level Boston Center
Sun 02:29:23 PM 41.9242 -70.5575 151° Southeast 169 194 3,600  Level Boston Center
Sun 02:30:24 PM 41.8831 -70.5272 151° Southeast 168 193 3,600  Level Boston Center
Sun 02:31:25 PM 41.8333 -70.4900 151° Southeast 171 197 3,600  Level Boston Center
Sun 02:32:29 PM 41.7919 -70.4589 151° Southeast 171 197 3,600 -48 Level Boston Center
Sun 02:33:29 PM 41.7497 -70.4289 152° Southeast 172 198 3,500 -148 Descending Boston Center
Sun 02:34:31 PM 41.7056 -70.3958 151° Southeast 176 203 3,300 -148 Descending Boston Center
Sun 02:35:31 PM 41.6611 -70.3633 151° Southeast 180 207 3,200 -99 Descending Boston Center
Sun 02:36:32 PM 41.6172 -70.3297 150° Southeast 182 209 3,100 -144 Descending Boston Center
Sun 02:37:36 PM 41.5731 -70.2969 151° Southeast 182 209 2,900 -242 Descending Boston Center
Sun 02:38:36 PM 41.5194 -70.2583 152° Southeast 182 209 2,600 -248 Descending Boston Center
Sun 02:39:37 PM 41.4703 -70.2419 166° South 184 212 2,400 -198 Descending Boston Center
Sun 02:40:37 PM 41.4186 -70.2386 177° South 185 213 2,200 -347 Descending Boston Center
Sun 02:41:38 PM 41.3669 -70.2336 176° South 185 213 1,700 -336 Descending Boston Center
Sun 02:42:42 PM 41.3167 -70.2283 175° South 185 213 1,500 -288 Descending Boston Center
Sun 02:43:43 PM 41.2669 -70.2264 178° South 182 209 1,100 -246 Descending Boston Center
Sun 02:44:44 PM 41.2392 -70.1744 125° Southeast 185 213 1,000 -99 Descending Boston Center
Sun 02:45:44 PM 41.2242 -70.1183 110° East 170 196 900 -100 Descending Boston Center
Sun 02:47:00 PM 41.2500 -70.0500 151° Southeast  Level FlightAware
Sun 02:54:00 PM 41.2530 -70.0599 151° Southeast  Level Estimated

Login

Don't have an account? Register now (free) for customized features, flight alerts, and more!